Time;durP1;ratioP1;P1;durP2;ratioP2;P2;SDS_P1;SDS_P2;PMS_P1;PMS_P2;Temp;Humidity;BMP_temperature;BMP_pressure;BME280_temperature;BME280_humidity;BME280_pressure;Samples;Min_cycle;Max_cycle;Signal;HPM_P1;HPM_P2
2023/04/28 00:01:03;;;;;;;9.50;4.30;;;13.20;56.90;;;;;;6250127;28;20467;-77
2023/04/28 00:04:10;;;;;;;4.80;4.40;;;13.20;56.50;;;;;;6250328;28;20479;-77
2023/04/28 00:07:15;;;;;;;6.30;4.23;;;13.20;56.40;;;;;;6249425;28;20518;-76
2023/04/28 00:10:22;;;;;;;7.40;4.73;;;13.30;56.80;;;;;;6250641;28;20490;-77
2023/04/28 00:13:27;;;;;;;6.77;4.30;;;13.30;57.00;;;;;;6250802;28;20797;-76
2023/04/28 00:16:41;;;;;;;4.57;3.87;;;13.30;56.80;;;;;;6268817;28;20845;-77
2023/04/28 00:19:48;;;;;;;5.53;4.30;;;13.30;56.60;;;;;;6274929;28;20478;-77
2023/04/28 00:22:53;;;;;;;5.07;4.50;;;13.20;56.60;;;;;;6276559;28;20474;-76
2023/04/28 00:25:58;;;;;;;6.90;4.73;;;13.20;57.00;;;;;;6266468;28;20466;-76
2023/04/28 00:29:05;;;;;;;6.33;4.67;;;13.10;57.00;;;;;;6258780;28;20853;-77
2023/04/28 00:32:12;;;;;;;9.97;5.80;;;13.10;57.60;;;;;;6254861;28;20737;-77
2023/04/28 00:35:22;;;;;;;4.70;3.90;;;13.00;58.00;;;;;;6268233;28;20442;-77
2023/04/28 00:38:27;;;;;;;5.53;4.23;;;13.00;58.00;;;;;;6263655;28;20528;-76
2023/04/28 00:41:35;;;;;;;5.63;4.80;;;12.90;58.20;;;;;;6271424;28;20540;-77
2023/04/28 00:44:40;;;;;;;5.10;4.60;;;12.80;58.30;;;;;;6269750;28;20933;-76
2023/04/28 00:47:52;;;;;;;5.23;4.23;;;12.70;58.30;;;;;;6256057;28;20472;-76
2023/04/28 00:50:59;;;;;;;5.20;4.70;;;12.70;58.60;;;;;;6265166;28;20466;-77
2023/04/28 00:54:05;;;;;;;5.20;4.00;;;12.60;58.70;;;;;;6258453;28;20477;-76
2023/04/28 00:57:14;;;;;;;4.73;4.33;;;12.50;58.90;;;;;;6263726;28;20813;-76
2023/04/28 01:00:19;;;;;;;4.90;4.40;;;12.50;59.20;;;;;;6261422;28;20482;-77
2023/04/28 01:03:24;;;;;;;5.20;4.77;;;12.40;59.60;;;;;;6254403;28;20467;-77
2023/04/28 01:06:29;;;;;;;5.40;4.73;;;12.30;59.90;;;;;;6254199;28;20511;-76
2023/04/28 01:09:40;;;;;;;4.37;4.00;;;12.30;60.70;;;;;;6252666;28;20957;-76
2023/04/28 01:12:56;;;;;;;7.93;3.97;;;12.20;61.00;;;;;;6253840;28;20467;-76
2023/04/28 01:16:04;;;;;;;5.93;4.53;;;12.20;61.20;;;;;;6254065;28;20471;-76
2023/04/28 01:19:12;;;;;;;5.23;4.20;;;12.10;61.60;;;;;;6254292;28;20487;-76
2023/04/28 01:22:17;;;;;;;4.33;3.93;;;12.10;62.30;;;;;;6254127;28;20471;-76
2023/04/28 01:25:30;;;;;;;5.33;5.00;;;12.00;62.70;;;;;;6253898;28;20478;-77
2023/04/28 01:28:35;;;;;;;6.20;4.50;;;11.90;63.10;;;;;;6253886;28;20479;-77
2023/04/28 01:31:43;;;;;;;10.37;5.20;;;11.90;63.80;;;;;;6253439;28;20787;-77
2023/04/28 01:34:47;;;;;;;5.97;5.50;;;11.90;64.40;;;;;;6253414;28;20493;-76
2023/04/28 01:38:01;;;;;;;5.60;5.00;;;11.70;64.80;;;;;;6259517;28;20482;-77
2023/04/28 01:41:07;;;;;;;5.50;4.87;;;11.60;65.70;;;;;;6253913;28;20911;-77
2023/04/28 01:44:20;;;;;;;6.23;4.40;;;11.50;66.50;;;;;;6261813;28;20442;-76
2023/04/28 01:47:27;;;;;;;6.37;4.67;;;11.50;67.80;;;;;;6264055;28;20498;-76
2023/04/28 01:50:34;;;;;;;5.93;5.00;;;11.50;68.60;;;;;;6266038;28;20467;-76
2023/04/28 01:53:38;;;;;;;5.93;4.90;;;11.40;69.20;;;;;;6255876;28;20474;-76
2023/04/28 01:56:51;;;;;;;5.73;5.33;;;11.40;70.00;;;;;;6253899;28;20487;-76
2023/04/28 01:59:55;;;;;;;5.83;5.33;;;11.40;70.70;;;;;;6262706;28;20474;-76
2023/04/28 02:03:01;;;;;;;5.97;5.40;;;11.30;71.50;;;;;;6266507;28;20475;-76
2023/04/28 02:06:06;;;;;;;5.67;5.10;;;11.30;72.10;;;;;;6267450;28;20466;-76
2023/04/28 02:09:15;;;;;;;6.43;4.90;;;11.30;73.00;;;;;;6267855;28;20478;-77
2023/04/28 02:12:22;;;;;;;4.63;4.23;;;11.20;73.40;;;;;;6262237;28;20475;-76
2023/04/28 02:15:26;;;;;;;5.20;4.70;;;11.20;74.00;;;;;;6257439;28;20487;-76
2023/04/28 02:18:30;;;;;;;6.53;5.33;;;11.20;74.90;;;;;;6253810;28;20463;-75
2023/04/28 02:21:35;;;;;;;5.30;4.53;;;11.10;74.90;;;;;;6253352;28;20486;-76
2023/04/28 02:24:41;;;;;;;5.63;5.17;;;11.10;74.80;;;;;;6253281;28;20792;-76
2023/04/28 02:27:47;;;;;;;5.70;4.10;;;11.00;75.50;;;;;;6253143;28;20482;-76
2023/04/28 02:30:52;;;;;;;5.30;4.90;;;11.00;75.50;;;;;;6253287;28;20482;-76
2023/04/28 02:33:56;;;;;;;5.70;5.07;;;11.00;76.10;;;;;;6253214;28;20950;-75
2023/04/28 02:37:01;;;;;;;7.67;5.20;;;11.00;77.00;;;;;;6254912;28;20471;-75
2023/04/28 02:40:10;;;;;;;5.70;5.13;;;10.90;77.60;;;;;;6255577;28;20491;-76
2023/04/28 02:43:23;;;;;;;6.53;4.70;;;10.90;77.80;;;;;;6254007;28;20985;-76
2023/04/28 02:46:27;;;;;;;5.50;5.00;;;10.90;78.20;;;;;;6253139;28;20962;-77
2023/04/28 02:49:34;;;;;;;7.20;5.70;;;10.90;78.60;;;;;;6252800;28;20810;-77
2023/04/28 02:52:40;;;;;;;5.17;4.77;;;10.80;78.90;;;;;;6252618;28;20475;-76
2023/04/28 02:55:50;;;;;;;9.63;6.10;;;10.80;79.50;;;;;;6246111;28;20482;-76
2023/04/28 02:59:00;;;;;;;5.27;4.60;;;10.70;79.80;;;;;;6251449;28;20474;-77
2023/04/28 03:02:08;;;;;;;5.43;4.93;;;10.70;80.30;;;;;;6250637;28;20458;-78
2023/04/28 03:05:16;;;;;;;6.53;5.57;;;10.60;80.30;;;;;;6251609;28;20438;-76
2023/04/28 03:08:21;;;;;;;6.17;4.83;;;10.50;80.70;;;;;;6252080;28;20459;-75
2023/04/28 03:11:32;;;;;;;6.30;5.30;;;10.50;81.50;;;;;;6251773;28;20467;-76
2023/04/28 03:14:42;;;;;;;6.97;5.87;;;10.40;82.10;;;;;;6251430;28;20467;-76
2023/04/28 03:17:47;;;;;;;8.30;5.63;;;10.40;82.70;;;;;;6251602;28;20463;-76
2023/04/28 03:20:51;;;;;;;5.80;5.20;;;10.30;83.70;;;;;;6250822;28;20498;-76
2023/04/28 03:24:03;;;;;;;5.73;5.23;;;10.20;84.00;;;;;;6258963;28;20473;-75
2023/04/28 03:27:10;;;;;;;8.90;5.43;;;10.10;84.40;;;;;;6275640;28;20481;-76
2023/04/28 03:30:20;;;;;;;5.60;5.13;;;10.10;85.00;;;;;;6276028;28;20481;-76
2023/04/28 03:33:41;;;;;;;5.40;4.90;;;10.10;85.70;;;;;;6275936;28;20462;-75
2023/04/28 03:36:46;;;;;;;6.30;5.70;;;10.10;86.30;;;;;;6274883;28;20478;-76
2023/04/28 03:39:53;;;;;;;6.03;5.50;;;10.00;86.90;;;;;;6275343;28;20489;-76
2023/04/28 03:42:58;;;;;;;8.30;6.57;;;10.10;87.40;;;;;;6275911;28;20477;-77
2023/04/28 03:46:14;;;;;;;11.23;5.83;;;10.00;88.70;;;;;;6275773;28;20470;-75
2023/04/28 03:49:18;;;;;;;7.23;5.70;;;10.10;88.30;;;;;;6275272;28;20557;-76
2023/04/28 03:52:22;;;;;;;6.93;6.30;;;10.10;88.50;;;;;;6275243;28;20485;-76
2023/04/28 03:55:33;;;;;;;7.60;6.77;;;10.10;88.90;;;;;;6273961;28;20486;-76
2023/04/28 03:58:39;;;;;;;9.90;6.37;;;10.10;89.50;;;;;;6275541;28;20795;-76
2023/04/28 04:01:44;;;;;;;10.20;6.20;;;10.10;90.00;;;;;;6275427;28;20503;-76
2023/04/28 04:04:49;;;;;;;9.53;7.70;;;10.10;90.00;;;;;;6275390;28;20474;-76
2023/04/28 04:07:53;;;;;;;8.03;6.70;;;10.10;90.00;;;;;;6275032;28;20478;-76
2023/04/28 04:10:58;;;;;;;7.73;5.93;;;10.10;90.00;;;;;;6275234;28;20474;-77
2023/04/28 04:14:02;;;;;;;6.20;5.67;;;10.10;90.20;;;;;;6274774;28;20976;-77
2023/04/28 04:17:09;;;;;;;8.53;6.93;;;10.20;90.20;;;;;;6275137;28;20464;-78
2023/04/28 04:20:13;;;;;;;7.63;6.07;;;10.10;90.10;;;;;;6272291;28;20457;-77
2023/04/28 04:23:18;;;;;;;6.27;5.77;;;10.10;90.00;;;;;;6288455;28;20773;-77
2023/04/28 04:26:24;;;;;;;6.10;5.50;;;10.20;90.30;;;;;;6287565;28;20450;-77
2023/04/28 04:29:28;;;;;;;10.50;6.30;;;10.30;90.40;;;;;;6276663;28;20473;-78
2023/04/28 04:32:35;;;;;;;8.80;6.13;;;10.30;90.30;;;;;;6274999;28;20898;-78
2023/04/28 04:35:42;;;;;;;6.60;5.50;;;10.30;90.20;;;;;;6279182;28;20490;-78
2023/04/28 04:38:49;;;;;;;7.73;6.20;;;10.40;90.30;;;;;;6281257;28;20469;-77
2023/04/28 04:41:57;;;;;;;10.47;6.37;;;10.40;90.10;;;;;;6281894;28;20474;-78
2023/04/28 04:45:03;;;;;;;8.10;5.97;;;10.50;90.20;;;;;;6280882;28;20501;-79
2023/04/28 04:48:13;;;;;;;6.50;5.83;;;10.60;90.20;;;;;;6280436;28;20474;-77
2023/04/28 04:51:18;;;;;;;5.93;5.43;;;10.70;90.20;;;;;;6280681;28;20956;-77
2023/04/28 04:54:30;;;;;;;7.00;5.57;;;10.70;90.00;;;;;;6280891;28;20482;-78
2023/04/28 04:57:43;;;;;;;7.60;6.80;;;10.80;90.00;;;;;;6279846;28;20474;-79
2023/04/28 05:00:47;;;;;;;7.90;6.40;;;10.80;89.60;;;;;;6281237;28;20501;-78
2023/04/28 05:03:54;;;;;;;6.60;6.00;;;10.90;89.40;;;;;;6281179;28;20466;-78
2023/04/28 05:07:06;;;;;;;5.70;5.20;;;11.00;89.20;;;;;;6272122;28;20779;-78
2023/04/28 05:10:11;;;;;;;7.07;5.70;;;11.00;89.10;;;;;;6289625;28;20942;-78
2023/04/28 05:13:14;;;;;;;7.67;5.53;;;11.10;89.00;;;;;;6282020;28;20469;-77
2023/04/28 05:16:19;;;;;;;11.20;5.30;;;11.10;88.80;;;;;;6290468;28;20489;-78
2023/04/28 05:19:34;;;;;;;9.00;6.23;;;11.10;88.90;;;;;;6299939;28;20482;-77
2023/04/28 05:22:42;;;;;;;7.97;5.13;;;11.20;88.80;;;;;;6280433;28;20474;-78
2023/04/28 05:25:47;;;;;;;9.30;6.77;;;11.20;88.60;;;;;;6280937;28;20467;-79
2023/04/28 05:29:00;;;;;;;7.27;6.07;;;11.30;88.30;;;;;;6282775;28;21074;-78
2023/04/28 05:32:07;;;;;;;7.37;6.50;;;11.40;88.00;;;;;;6286263;28;20952;-77
2023/04/28 05:35:14;;;;;;;6.03;5.50;;;11.50;87.00;;;;;;6287768;28;20560;-78
2023/04/28 05:38:18;;;;;;;7.67;6.90;;;11.70;86.70;;;;;;6281004;28;20462;-77
2023/04/28 05:41:29;;;;;;;8.80;6.50;;;11.80;86.20;;;;;;6281028;28;20670;-77
2023/04/28 05:44:36;;;;;;;7.90;6.30;;;11.90;85.70;;;;;;6284153;28;20458;-77
2023/04/28 05:47:43;;;;;;;11.37;7.60;;;12.10;85.20;;;;;;6280692;28;20480;-78
2023/04/28 05:50:49;;;;;;;8.67;6.00;;;12.30;84.80;;;;;;6283440;28;21143;-78
2023/04/28 05:53:54;;;;;;;7.60;5.77;;;12.50;84.10;;;;;;6281899;28;20478;-77
2023/04/28 05:56:58;;;;;;;5.67;5.17;;;12.70;83.20;;;;;;6279520;28;20480;-79
2023/04/28 06:00:07;;;;;;;6.80;6.20;;;12.80;82.30;;;;;;6282265;28;20501;-78
2023/04/28 06:03:13;;;;;;;6.13;5.63;;;12.80;81.40;;;;;;6289777;28;20462;-78
2023/04/28 06:06:20;;;;;;;5.47;4.90;;;12.90;80.90;;;;;;6292811;28;20833;-77
2023/04/28 06:09:28;;;;;;;6.03;5.50;;;13.00;80.10;;;;;;6289697;28;20470;-77
2023/04/28 06:12:41;;;;;;;9.93;6.23;;;13.00;80.20;;;;;;6278910;28;20485;-77
2023/04/28 06:15:46;;;;;;;7.30;6.57;;;13.10;78.80;;;;;;6278230;28;20819;-77
2023/04/28 06:18:50;;;;;;;9.20;6.83;;;13.10;77.80;;;;;;6277806;28;20472;-78
2023/04/28 06:21:59;;;;;;;7.67;6.00;;;13.20;77.90;;;;;;6277678;28;20477;-77
2023/04/28 06:25:09;;;;;;;8.50;5.63;;;13.30;77.30;;;;;;6278161;28;20477;-78
2023/04/28 06:28:16;;;;;;;8.63;5.73;;;13.30;76.20;;;;;;6277780;28;20473;-77
2023/04/28 06:31:24;;;;;;;5.70;5.20;;;13.30;76.00;;;;;;6277330;28;20495;-77
2023/04/28 06:34:29;;;;;;;6.83;5.20;;;13.40;76.50;;;;;;6277764;28;20474;-78
2023/04/28 06:37:40;;;;;;;10.10;5.27;;;13.40;76.10;;;;;;6277854;28;20474;-77
2023/04/28 06:40:45;;;;;;;7.30;6.53;;;13.60;75.40;;;;;;6278058;28;20478;-78
2023/04/28 06:43:50;;;;;;;8.13;5.97;;;13.70;74.20;;;;;;6277412;28;20485;-77
2023/04/28 06:46:57;;;;;;;6.53;5.93;;;13.80;73.70;;;;;;6277105;28;20488;-78
2023/04/28 06:50:04;;;;;;;6.83;5.63;;;13.90;73.20;;;;;;6277238;28;20478;-78
2023/04/28 06:53:11;;;;;;;9.57;6.63;;;14.10;72.60;;;;;;6277710;28;20877;-77
2023/04/28 06:56:18;;;;;;;5.90;5.30;;;14.30;71.90;;;;;;6277068;28;20948;-78
2023/04/28 06:59:25;;;;;;;6.40;5.40;;;14.40;71.50;;;;;;6277335;28;20934;-77
2023/04/28 07:02:31;;;;;;;6.93;5.77;;;14.70;70.90;;;;;;6295266;28;20435;-77
2023/04/28 07:05:36;;;;;;;9.27;6.00;;;15.00;69.50;;;;;;6289261;28;20469;-77
2023/04/28 07:08:55;;;;;;;5.97;5.43;;;15.10;68.20;;;;;;6281443;28;20481;-74
2023/04/28 07:12:00;;;;;;;8.13;6.27;;;15.10;66.70;;;;;;6281258;28;20470;-74
2023/04/28 07:15:09;;;;;;;5.80;5.33;;;15.20;66.50;;;;;;6278986;28;20482;-75
2023/04/28 07:18:14;;;;;;;10.20;5.60;;;15.40;66.60;;;;;;6283467;28;20813;-75
2023/04/28 07:21:21;;;;;;;6.53;5.77;;;15.50;65.50;;;;;;6286757;28;20469;-74
2023/04/28 07:24:32;;;;;;;6.00;5.40;;;15.60;65.30;;;;;;6287477;28;20474;-74
2023/04/28 07:27:37;;;;;;;7.90;6.03;;;15.60;64.90;;;;;;6286713;28;20462;-74
2023/04/28 07:30:44;;;;;;;7.13;5.60;;;15.60;64.80;;;;;;6287879;28;20474;-75
2023/04/28 07:33:54;;;;;;;6.20;5.60;;;15.80;64.30;;;;;;6289615;28;20463;-74
2023/04/28 07:37:04;;;;;;;7.30;5.90;;;16.20;62.70;;;;;;6300576;28;20478;-74
2023/04/28 07:40:11;;;;;;;6.47;5.77;;;16.30;62.30;;;;;;6303612;28;20486;-75
2023/04/28 07:43:16;;;;;;;7.07;6.37;;;16.50;61.90;;;;;;6284167;28;20977;-75
2023/04/28 07:46:30;;;;;;;6.90;6.40;;;16.60;61.70;;;;;;6274988;28;20478;-74
2023/04/28 07:49:37;;;;;;;5.77;5.00;;;16.60;60.50;;;;;;6292070;28;20484;-74
2023/04/28 07:52:47;;;;;;;4.87;4.53;;;16.60;60.40;;;;;;6287173;28;20493;-74
2023/04/28 07:55:55;;;;;;;8.60;5.80;;;16.50;59.80;;;;;;6281035;28;20561;-74
2023/04/28 07:59:00;;;;;;;6.07;5.63;;;16.30;60.20;;;;;;6268844;28;20597;-75
2023/04/28 08:02:05;;;;;;;6.60;6.00;;;16.00;60.80;;;;;;6272545;28;20486;-75
2023/04/28 08:05:21;;;;;;;6.83;6.13;;;15.70;61.90;;;;;;6267863;28;20439;-75
2023/04/28 08:08:29;;;;;;;7.33;6.63;;;15.50;62.30;;;;;;6260288;28;22246;-75
2023/04/28 08:11:37;;;;;;;8.73;6.30;;;15.20;63.60;;;;;;6259707;28;20462;-75
2023/04/28 08:14:44;;;;;;;7.80;6.60;;;15.20;64.20;;;;;;6258617;28;20559;-75
2023/04/28 08:17:54;;;;;;;7.90;5.40;;;15.10;64.30;;;;;;6249843;28;20521;-74
2023/04/28 08:20:58;;;;;;;11.80;6.40;;;15.00;65.10;;;;;;6249924;28;20851;-75
2023/04/28 08:24:03;;;;;;;6.93;5.90;;;15.00;65.40;;;;;;6248605;28;20961;-75
2023/04/28 08:27:10;;;;;;;12.93;7.10;;;15.00;65.60;;;;;;6249674;28;20486;-74
2023/04/28 08:30:15;;;;;;;6.73;6.13;;;15.10;65.80;;;;;;6249515;28;20949;-75
2023/04/28 08:33:27;;;;;;;10.27;6.40;;;15.10;65.90;;;;;;6249774;28;20524;-75
2023/04/28 08:36:34;;;;;;;7.47;6.17;;;15.00;65.80;;;;;;6251272;28;20570;-75
2023/04/28 08:39:48;;;;;;;9.27;6.40;;;15.00;66.00;;;;;;6254127;28;20475;-74
2023/04/28 08:43:03;;;;;;;11.13;6.80;;;14.90;65.60;;;;;;6249754;28;20471;-74
2023/04/28 08:46:10;;;;;;;10.73;6.13;;;14.90;66.00;;;;;;6250566;28;20482;-74
2023/04/28 08:49:17;;;;;;;7.50;6.80;;;14.90;66.20;;;;;;6250550;28;20564;-74
2023/04/28 08:52:25;;;;;;;8.70;5.40;;;14.90;66.80;;;;;;6250226;28;20471;-74
2023/04/28 08:55:32;;;;;;;6.53;5.90;;;14.80;67.10;;;;;;6249801;28;20481;-74
2023/04/28 08:58:41;;;;;;;8.53;6.00;;;14.80;67.00;;;;;;6249055;28;20551;-73
2023/04/28 09:01:51;;;;;;;9.90;7.17;;;14.70;67.50;;;;;;6249770;28;20498;-74
2023/04/28 09:04:56;;;;;;;12.90;6.90;;;14.60;68.00;;;;;;6249648;28;20481;-74
2023/04/28 09:11:23;;;;;;;6.87;6.20;;;14.50;68.30;;;;;;6249412;28;20772;-74
2023/04/28 09:14:31;;;;;;;7.10;6.40;;;14.60;69.20;;;;;;6248981;28;20580;-74
2023/04/28 09:17:49;;;;;;;10.10;6.47;;;14.80;68.70;;;;;;6249584;28;20902;-74
2023/04/28 09:21:04;;;;;;;7.63;5.93;;;14.90;68.40;;;;;;6253000;28;20594;-74
2023/04/28 09:24:10;;;;;;;6.40;5.80;;;15.10;68.00;;;;;;6255491;28;20977;-74
2023/04/28 09:27:14;;;;;;;9.20;5.83;;;15.30;67.80;;;;;;6253217;28;20471;-75
2023/04/28 09:30:42;;;;;;;8.33;5.60;;;15.40;67.00;;;;;;6254443;28;20475;-74
2023/04/28 09:33:58;;;;;;;6.13;5.60;;;15.60;67.00;;;;;;6253942;28;20476;-75
2023/04/28 09:37:16;;;;;;;7.40;5.53;;;15.80;67.80;;;;;;6253936;28;20479;-75
2023/04/28 09:40:24;;;;;;;10.00;6.73;;;16.10;66.20;;;;;;6248433;28;20970;-75
2023/04/28 09:43:33;;;;;;;8.03;5.60;;;16.40;65.30;;;;;;6253257;28;20471;-74
2023/04/28 09:46:44;;;;;;;7.93;5.90;;;16.70;64.10;;;;;;6253718;28;20799;-74
2023/04/28 09:50:00;;;;;;;8.93;5.20;;;16.90;62.80;;;;;;6270884;28;20493;-75
2023/04/28 09:53:11;;;;;;;8.20;5.10;;;17.10;61.40;;;;;;6284555;28;20476;-74
2023/04/28 09:56:20;;;;;;;10.10;5.57;;;17.20;60.40;;;;;;6302140;28;20492;-74
2023/04/28 09:59:25;;;;;;;4.73;4.30;;;17.30;60.40;;;;;;6281595;28;20486;-74
2023/04/28 10:02:44;;;;;;;8.03;5.80;;;17.30;59.50;;;;;;6277472;28;20450;-75
2023/04/28 10:05:49;;;;;;;7.37;5.70;;;17.30;59.90;;;;;;6279665;28;20496;-75
2023/04/28 10:08:57;;;;;;;5.77;5.27;;;17.20;59.70;;;;;;6302110;28;20593;-75
2023/04/28 10:12:04;;;;;;;7.37;5.33;;;17.10;59.60;;;;;;6303359;28;20461;-75
2023/04/28 10:15:13;;;;;;;8.30;6.20;;;17.20;60.40;;;;;;6304131;28;20470;-75
2023/04/28 10:18:21;;;;;;;8.00;5.77;;;17.10;60.50;;;;;;6303218;28;20477;-75
2023/04/28 10:21:28;;;;;;;7.13;6.43;;;17.00;62.10;;;;;;6311972;28;20474;-75
2023/04/28 10:24:35;;;;;;;7.77;6.97;;;17.10;61.00;;;;;;6316990;28;20469;-74
2023/04/28 10:27:42;;;;;;;7.47;6.27;;;17.10;61.40;;;;;;6312218;28;20472;-74
2023/04/28 10:31:11;;;;;;;7.60;6.90;;;17.30;61.30;;;;;;6305546;28;20474;-75
2023/04/28 10:34:27;;;;;;;9.13;7.43;;;17.50;60.70;;;;;;6314589;28;20473;-74
2023/04/28 10:38:08;;;;;;;9.57;8.43;;;17.50;60.40;;;;;;6309909;28;20490;-75
2023/04/28 10:41:32;;;;;;;7.93;7.00;;;17.30;60.50;;;;;;6301812;28;20465;-75
2023/04/28 10:44:45;;;;;;;7.43;6.57;;;17.20;60.80;;;;;;6288206;28;20474;-74
2023/04/28 10:48:08;;;;;;;10.77;8.73;;;17.30;62.10;;;;;;6301699;28;20453;-74
2023/04/28 10:51:36;;;;;;;8.60;7.53;;;17.40;61.30;;;;;;6287502;28;20962;-74
2023/04/28 10:54:42;;;;;;;8.47;7.07;;;17.50;61.30;;;;;;6275662;28;20998;-73
2023/04/28 10:57:46;;;;;;;8.17;7.37;;;17.60;60.80;;;;;;6284100;28;20470;-74
2023/04/28 11:00:53;;;;;;;8.20;7.40;;;17.70;60.80;;;;;;6300656;28;20469;-73
2023/04/28 11:04:02;;;;;;;8.70;7.73;;;17.90;61.00;;;;;;6300762;28;20469;-74
2023/04/28 11:07:23;;;;;;;8.27;7.47;;;18.00;60.40;;;;;;6301006;28;20473;-74
2023/04/28 11:11:07;;;;;;;8.80;7.90;;;18.10;59.70;;;;;;6301639;28;20477;-73
2023/04/28 11:14:39;;;;;;;8.17;7.30;;;18.30;59.50;;;;;;6299485;28;20454;-73
2023/04/28 11:17:47;;;;;;;8.60;7.90;;;18.20;58.70;;;;;;6299242;28;20331;-74
2023/04/28 11:20:57;;;;;;;8.23;7.30;;;18.30;58.90;;;;;;6299838;28;21032;-74
2023/04/28 11:24:11;;;;;;;9.23;8.43;;;18.30;58.70;;;;;;6299748;28;20666;-74
2023/04/28 11:27:24;;;;;;;8.37;7.43;;;18.50;58.10;;;;;;6300668;28;20333;-73
2023/04/28 11:30:30;;;;;;;13.07;8.90;;;18.60;57.40;;;;;;6299887;28;20257;-74
2023/04/28 11:33:38;;;;;;;9.07;8.23;;;18.50;57.40;;;;;;6299767;28;20231;-75
2023/04/28 11:36:43;;;;;;;11.53;10.27;;;18.30;58.70;;;;;;6299232;28;20546;-74
2023/04/28 11:39:49;;;;;;;10.67;9.67;;;18.70;58.20;;;;;;6299598;28;20245;-75
2023/04/28 11:42:55;;;;;;;9.60;8.53;;;19.00;57.00;;;;;;6299125;28;20242;-75
2023/04/28 11:46:02;;;;;;;8.90;8.10;;;19.30;56.70;;;;;;6301979;28;20242;-74
2023/04/28 11:49:07;;;;;;;9.87;8.90;;;19.40;55.70;;;;;;6293045;28;20567;-74
2023/04/28 11:52:21;;;;;;;8.77;8.07;;;19.20;56.10;;;;;;6287436;28;20344;-74
2023/04/28 11:55:30;;;;;;;9.70;8.70;;;19.10;56.80;;;;;;6274195;28;20231;-74
2023/04/28 11:58:36;;;;;;;9.83;8.83;;;19.40;56.60;;;;;;6288388;28;20310;-74
2023/04/28 12:01:48;;;;;;;10.20;9.20;;;19.80;56.30;;;;;;6298877;28;20663;-74
2023/04/28 12:04:54;;;;;;;10.93;8.80;;;20.20;55.20;;;;;;6298902;28;20272;-74
2023/04/28 12:08:01;;;;;;;9.37;8.47;;;20.40;54.40;;;;;;6299796;28;20234;-77
2023/04/28 12:11:16;;;;;;;9.57;8.67;;;20.70;54.50;;;;;;6299083;28;20543;-74
2023/04/28 12:14:24;;;;;;;9.00;8.20;;;20.80;53.20;;;;;;6299482;28;20235;-74
2023/04/28 12:17:31;;;;;;;7.70;6.97;;;20.80;53.20;;;;;;6299691;28;20694;-74
2023/04/28 12:20:39;;;;;;;8.43;7.73;;;20.70;53.80;;;;;;6299189;28;20231;-75
2023/04/28 12:23:44;;;;;;;9.93;8.80;;;20.20;54.00;;;;;;6299339;28;20226;-75
2023/04/28 12:26:51;;;;;;;9.10;8.30;;;20.00;54.30;;;;;;6298454;28;20502;-75
2023/04/28 12:29:57;;;;;;;11.40;8.60;;;19.80;55.00;;;;;;6299435;28;20241;-74
2023/04/28 12:33:04;;;;;;;11.63;8.60;;;19.80;55.00;;;;;;6299449;28;20235;-76
2023/04/28 12:36:08;;;;;;;9.80;8.13;;;19.60;55.00;;;;;;6299995;28;20646;-75
2023/04/28 12:39:18;;;;;;;9.90;8.33;;;19.40;55.60;;;;;;6298480;28;20245;-75
2023/04/28 12:42:28;;;;;;;9.63;8.70;;;19.20;56.20;;;;;;6274722;28;20572;-76
2023/04/28 12:45:33;;;;;;;10.47;8.00;;;19.00;56.70;;;;;;6261041;28;20220;-74
2023/04/28 12:48:50;;;;;;;12.60;8.60;;;18.90;56.80;;;;;;6272368;28;20238;-75
2023/04/28 12:52:09;;;;;;;8.00;7.30;;;18.80;57.60;;;;;;6267239;28;20314;-74
2023/04/28 12:55:20;;;;;;;10.33;9.40;;;18.60;58.10;;;;;;6276358;28;20228;-74
2023/04/28 12:58:31;;;;;;;9.70;8.70;;;18.60;58.30;;;;;;6297712;28;20473;-75
2023/04/28 13:01:38;;;;;;;8.97;8.17;;;18.50;58.40;;;;;;6307965;28;20235;-75
2023/04/28 13:04:46;;;;;;;8.23;7.53;;;18.60;58.60;;;;;;6303284;28;20238;-74
2023/04/28 13:07:51;;;;;;;9.40;8.60;;;18.60;58.40;;;;;;6303790;28;20230;-75
2023/04/28 13:11:06;;;;;;;8.97;8.07;;;18.70;58.40;;;;;;6265238;28;20251;-75
2023/04/28 13:14:28;;;;;;;8.50;7.70;;;18.60;58.50;;;;;;6253897;28;20277;-74
2023/04/28 13:17:34;;;;;;;10.80;9.10;;;18.60;58.60;;;;;;6253291;28;20513;-75
2023/04/28 13:20:42;;;;;;;16.07;10.43;;;18.60;59.00;;;;;;6254380;28;20232;-75
2023/04/28 13:23:48;;;;;;;9.87;8.87;;;18.70;59.30;;;;;;6255209;28;20231;-75
2023/04/28 13:26:53;;;;;;;15.10;13.40;;;18.70;59.10;;;;;;6244452;28;20243;-75
2023/04/28 13:29:59;;;;;;;9.00;8.13;;;18.50;59.20;;;;;;6253902;28;20240;-76
2023/04/28 13:33:04;;;;;;;10.13;9.13;;;18.40;59.50;;;;;;6253721;28;20246;-75
2023/04/28 13:36:09;;;;;;;9.63;8.60;;;18.40;59.40;;;;;;6253169;28;20240;-75
2023/04/28 13:39:14;;;;;;;10.47;9.40;;;18.30;59.70;;;;;;6252837;28;20251;-75
2023/04/28 13:42:18;;;;;;;10.50;9.60;;;18.40;59.70;;;;;;6252975;28;20481;-76
2023/04/28 13:45:28;;;;;;;9.67;8.70;;;18.40;59.70;;;;;;6253060;28;20243;-75
2023/04/28 13:48:35;;;;;;;9.83;8.23;;;18.40;59.60;;;;;;6252856;28;20232;-74
2023/04/28 13:51:40;;;;;;;10.53;9.63;;;18.40;59.70;;;;;;6260992;28;20279;-75
2023/04/28 13:54:48;;;;;;;8.80;7.90;;;18.40;59.50;;;;;;6277375;28;20584;-75
2023/04/28 13:57:52;;;;;;;10.30;9.43;;;18.40;59.50;;;;;;6273369;28;20223;-77
2023/04/28 14:00:58;;;;;;;9.70;8.67;;;18.50;60.50;;;;;;6301511;28;20330;-76
2023/04/28 14:04:04;;;;;;;10.80;9.80;;;18.50;60.30;;;;;;6302226;28;20226;-77
2023/04/28 14:07:12;;;;;;;9.10;8.20;;;18.50;59.90;;;;;;6301848;28;20314;-77
2023/04/28 14:10:18;;;;;;;10.70;8.27;;;18.50;59.90;;;;;;6302080;28;20231;-77
2023/04/28 14:13:23;;;;;;;9.90;9.00;;;18.50;60.20;;;;;;6301555;28;20234;-76
2023/04/28 14:16:37;;;;;;;9.47;7.97;;;18.40;60.70;;;;;;6291890;28;20239;-76
2023/04/28 14:19:44;;;;;;;12.17;9.57;;;18.30;61.60;;;;;;6257550;28;20543;-77
2023/04/28 14:22:49;;;;;;;11.27;9.00;;;18.30;62.90;;;;;;6259175;28;20231;-76
2023/04/28 14:25:56;;;;;;;10.90;9.07;;;18.10;63.60;;;;;;6264511;28;20239;-76
2023/04/28 14:29:02;;;;;;;8.67;7.87;;;18.10;65.10;;;;;;6262293;28;20238;-76
2023/04/28 14:32:07;;;;;;;9.87;8.87;;;18.00;65.80;;;;;;6261918;28;20953;-75
2023/04/28 14:35:12;;;;;;;10.70;9.10;;;17.90;65.80;;;;;;6252372;28;20212;-76
2023/04/28 14:38:27;;;;;;;9.53;8.23;;;17.80;66.30;;;;;;6252735;28;20439;-77
2023/04/28 14:41:41;;;;;;;10.43;8.90;;;17.70;64.70;;;;;;6252385;28;20549;-76
2023/04/28 14:44:46;;;;;;;8.33;7.63;;;17.60;65.20;;;;;;6255758;28;20833;-76
2023/04/28 14:47:56;;;;;;;9.20;8.30;;;17.50;65.60;;;;;;6255520;28;20463;-76
2023/04/28 14:51:04;;;;;;;8.57;7.70;;;17.50;67.70;;;;;;6254684;28;20483;-76
2023/04/28 14:54:17;;;;;;;9.20;8.37;;;17.40;69.10;;;;;;6279285;28;20462;-76
2023/04/28 14:57:22;;;;;;;8.37;7.50;;;17.40;68.70;;;;;;6293557;28;20481;-76
2023/04/28 15:00:25;;;;;;;9.50;8.60;;;17.50;69.60;;;;;;6264623;28;20967;-76
2023/04/28 15:06:52;;;;;;;10.20;9.20;;;17.30;71.50;;;;;;6278301;28;20500;-75
2023/04/28 15:09:58;;;;;;;9.30;8.40;;;17.20;71.30;;;;;;6281527;28;20478;-75
2023/04/28 15:13:04;;;;;;;10.77;9.73;;;17.20;73.00;;;;;;6277156;28;20470;-75
2023/04/28 15:16:18;;;;;;;12.20;9.17;;;17.20;73.60;;;;;;6280568;28;20485;-75
2023/04/28 15:19:24;;;;;;;10.20;9.10;;;17.20;73.50;;;;;;6278844;28;20976;-75
2023/04/28 15:22:29;;;;;;;9.50;8.60;;;17.30;74.50;;;;;;6278505;28;20773;-76
2023/04/28 15:25:33;;;;;;;11.87;8.47;;;17.30;74.70;;;;;;6275819;28;20511;-77
2023/04/28 15:28:42;;;;;;;10.37;8.60;;;17.40;74.70;;;;;;6275698;28;20778;-77
2023/04/28 15:31:50;;;;;;;10.83;9.87;;;17.40;75.70;;;;;;6283934;28;20803;-77
2023/04/28 15:34:56;;;;;;;8.67;7.97;;;17.40;75.00;;;;;;6280347;28;20926;-76
2023/04/28 15:38:00;;;;;;;8.73;7.90;;;17.30;74.90;;;;;;6275920;28;20474;-77
2023/04/28 15:41:08;;;;;;;11.60;8.97;;;17.30;75.10;;;;;;6274963;28;20565;-76
2023/04/28 15:44:14;;;;;;;12.23;9.73;;;17.30;76.40;;;;;;6264375;28;20220;-76
2023/04/28 15:47:21;;;;;;;10.00;9.00;;;17.30;77.50;;;;;;6267246;28;20435;-76
2023/04/28 15:50:28;;;;;;;10.30;8.53;;;17.20;77.50;;;;;;6254900;28;20987;-75
2023/04/28 15:53:33;;;;;;;10.17;9.13;;;17.10;77.30;;;;;;6273895;28;20482;-75
2023/04/28 15:56:41;;;;;;;10.90;9.20;;;17.10;78.00;;;;;;6250645;28;20459;-74
2023/04/28 15:59:50;;;;;;;10.57;9.40;;;17.00;78.70;;;;;;6249948;28;20471;-74
2023/04/28 16:02:57;;;;;;;10.30;9.20;;;16.90;78.80;;;;;;6235766;28;20486;-75
2023/04/28 16:06:16;;;;;;;9.13;8.43;;;16.90;79.10;;;;;;6250994;28;20470;-74
2023/04/28 16:09:21;;;;;;;14.43;9.27;;;16.90;79.20;;;;;;6251216;28;20478;-75
2023/04/28 16:12:34;;;;;;;11.27;10.40;;;16.80;79.50;;;;;;6250664;28;20481;-74
2023/04/28 16:15:42;;;;;;;9.67;8.57;;;16.80;80.10;;;;;;6250599;28;20636;-74
2023/04/28 16:18:49;;;;;;;11.20;10.10;;;16.70;80.10;;;;;;6250279;28;20549;-75
2023/04/28 16:21:58;;;;;;;12.20;10.93;;;16.70;81.60;;;;;;6250940;28;20950;-74
2023/04/28 16:25:05;;;;;;;14.77;10.40;;;16.50;81.00;;;;;;6263216;28;20471;-74